sensor_id;sensor_type;location;lat;lon;timestamp;temperature;humidity
12309;DHT22;6217;48.150;17.142;2023-12-04T00:03:03;-0.50;81.70
12309;DHT22;6217;48.150;17.142;2023-12-04T00:07:09;-0.50;81.90
12309;DHT22;6217;48.150;17.142;2023-12-04T00:11:16;-0.50;82.00
12309;DHT22;6217;48.150;17.142;2023-12-04T00:15:24;-0.50;82.00
12309;DHT22;6217;48.150;17.142;2023-12-04T00:19:30;-0.50;82.00
12309;DHT22;6217;48.150;17.142;2023-12-04T00:23:36;-0.70;81.80
12309;DHT22;6217;48.150;17.142;2023-12-04T00:27:42;-0.90;82.50
12309;DHT22;6217;48.150;17.142;2023-12-04T00:31:48;-0.80;82.90
12309;DHT22;6217;48.150;17.142;2023-12-04T00:35:54;-0.80;82.40
12309;DHT22;6217;48.150;17.142;2023-12-04T00:40:00;-0.90;82.80
12309;DHT22;6217;48.150;17.142;2023-12-04T00:44:06;-0.80;82.90
12309;DHT22;6217;48.150;17.142;2023-12-04T00:48:12;-0.70;82.90
12309;DHT22;6217;48.150;17.142;2023-12-04T00:52:18;-0.80;82.60
12309;DHT22;6217;48.150;17.142;2023-12-04T00:56:24;-0.80;82.30
12309;DHT22;6217;48.150;17.142;2023-12-04T01:00:30;-1.00;82.40
12309;DHT22;6217;48.150;17.142;2023-12-04T01:04:40;-1.10;82.50
12309;DHT22;6217;48.150;17.142;2023-12-04T01:08:47;-1.10;82.70
12309;DHT22;6217;48.150;17.142;2023-12-04T01:12:54;-1.20;82.70
12309;DHT22;6217;48.150;17.142;2023-12-04T01:17:00;-1.10;82.90
12309;DHT22;6217;48.150;17.142;2023-12-04T01:21:06;-1.20;82.70
12309;DHT22;6217;48.150;17.142;2023-12-04T01:25:14;-1.20;82.80
12309;DHT22;6217;48.150;17.142;2023-12-04T01:29:20;-1.30;82.90
12309;DHT22;6217;48.150;17.142;2023-12-04T01:33:26;-1.30;83.50
12309;DHT22;6217;48.150;17.142;2023-12-04T01:37:33;-1.20;83.50
12309;DHT22;6217;48.150;17.142;2023-12-04T01:41:39;-1.20;83.20
12309;DHT22;6217;48.150;17.142;2023-12-04T01:45:45;-1.30;83.80
12309;DHT22;6217;48.150;17.142;2023-12-04T01:49:52;-1.30;83.30
12309;DHT22;6217;48.150;17.142;2023-12-04T01:53:59;-1.30;83.10
12309;DHT22;6217;48.150;17.142;2023-12-04T01:58:10;-1.30;83.20
12309;DHT22;6217;48.150;17.142;2023-12-04T02:02:16;-1.40;83.40
12309;DHT22;6217;48.150;17.142;2023-12-04T02:06:22;-1.40;83.60
12309;DHT22;6217;48.150;17.142;2023-12-04T02:10:28;-1.40;83.50
12309;DHT22;6217;48.150;17.142;2023-12-04T02:14:34;-1.50;83.40
12309;DHT22;6217;48.150;17.142;2023-12-04T02:18:40;-1.50;83.60
12309;DHT22;6217;48.150;17.142;2023-12-04T02:22:46;-1.50;84.20
12309;DHT22;6217;48.150;17.142;2023-12-04T02:26:55;-1.60;83.20
12309;DHT22;6217;48.150;17.142;2023-12-04T02:31:05;-1.70;84.00
12309;DHT22;6217;48.150;17.142;2023-12-04T02:35:14;-1.70;84.10
12309;DHT22;6217;48.150;17.142;2023-12-04T02:39:22;-1.80;83.90
12309;DHT22;6217;48.150;17.142;2023-12-04T02:43:28;-1.80;84.30
12309;DHT22;6217;48.150;17.142;2023-12-04T02:47:34;-1.70;84.30
12309;DHT22;6217;48.150;17.142;2023-12-04T02:51:41;-1.80;84.30
12309;DHT22;6217;48.150;17.142;2023-12-04T02:55:47;-1.80;84.50
12309;DHT22;6217;48.150;17.142;2023-12-04T02:59:53;-1.70;84.10
12309;DHT22;6217;48.150;17.142;2023-12-04T03:03:59;-1.80;84.10
12309;DHT22;6217;48.150;17.142;2023-12-04T03:08:05;-1.80;84.20
12309;DHT22;6217;48.150;17.142;2023-12-04T03:12:11;-1.90;84.20
12309;DHT22;6217;48.150;17.142;2023-12-04T03:16:17;-2.00;84.50
12309;DHT22;6217;48.150;17.142;2023-12-04T03:20:27;-2.10;84.80
12309;DHT22;6217;48.150;17.142;2023-12-04T03:24:33;-2.10;84.80
12309;DHT22;6217;48.150;17.142;2023-12-04T03:28:42;-2.00;85.10
12309;DHT22;6217;48.150;17.142;2023-12-04T03:32:48;-1.90;84.60
12309;DHT22;6217;48.150;17.142;2023-12-04T03:36:54;-1.90;84.70
12309;DHT22;6217;48.150;17.142;2023-12-04T03:41:00;-1.90;84.50
12309;DHT22;6217;48.150;17.142;2023-12-04T03:45:06;-1.90;84.40
12309;DHT22;6217;48.150;17.142;2023-12-04T03:49:12;-1.90;84.50
12309;DHT22;6217;48.150;17.142;2023-12-04T03:53:18;-1.90;84.40
12309;DHT22;6217;48.150;17.142;2023-12-04T03:57:24;-2.00;84.40
12309;DHT22;6217;48.150;17.142;2023-12-04T04:01:30;-2.10;84.80
12309;DHT22;6217;48.150;17.142;2023-12-04T04:05:36;-2.10;84.90
12309;DHT22;6217;48.150;17.142;2023-12-04T04:09:42;-2.00;84.60
12309;DHT22;6217;48.150;17.142;2023-12-04T04:13:49;-2.00;84.50
12309;DHT22;6217;48.150;17.142;2023-12-04T04:17:55;-2.00;84.40
12309;DHT22;6217;48.150;17.142;2023-12-04T04:22:01;-2.10;84.40
12309;DHT22;6217;48.150;17.142;2023-12-04T04:26:09;-2.10;84.30
12309;DHT22;6217;48.150;17.142;2023-12-04T04:30:15;-2.00;84.30
12309;DHT22;6217;48.150;17.142;2023-12-04T04:34:22;-2.10;84.10
12309;DHT22;6217;48.150;17.142;2023-12-04T04:38:28;-2.20;84.10
12309;DHT22;6217;48.150;17.142;2023-12-04T04:42:34;-2.30;84.40
12309;DHT22;6217;48.150;17.142;2023-12-04T04:46:40;-2.30;84.70
12309;DHT22;6217;48.150;17.142;2023-12-04T04:50:46;-2.30;84.70
12309;DHT22;6217;48.150;17.142;2023-12-04T04:54:52;-2.30;84.50
12309;DHT22;6217;48.150;17.142;2023-12-04T04:58:58;-2.30;84.40
12309;DHT22;6217;48.150;17.142;2023-12-04T05:03:04;-2.30;84.50
12309;DHT22;6217;48.150;17.142;2023-12-04T05:07:14;-2.40;84.20
12309;DHT22;6217;48.150;17.142;2023-12-04T05:11:20;-2.50;84.30
12309;DHT22;6217;48.150;17.142;2023-12-04T05:15:26;-2.60;84.50
12309;DHT22;6217;48.150;17.142;2023-12-04T05:19:32;-2.70;84.80
12309;DHT22;6217;48.150;17.142;2023-12-04T05:23:38;-2.70;85.10
12309;DHT22;6217;48.150;17.142;2023-12-04T05:27:44;-2.70;85.60
12309;DHT22;6217;48.150;17.142;2023-12-04T05:31:56;-2.70;85.00
12309;DHT22;6217;48.150;17.142;2023-12-04T05:36:03;-2.80;85.20
12309;DHT22;6217;48.150;17.142;2023-12-04T05:40:12;-2.80;85.20
12309;DHT22;6217;48.150;17.142;2023-12-04T05:44:18;-2.80;85.40
12309;DHT22;6217;48.150;17.142;2023-12-04T05:48:24;-2.80;85.60
12309;DHT22;6217;48.150;17.142;2023-12-04T05:52:30;-2.80;85.60
12309;DHT22;6217;48.150;17.142;2023-12-04T05:56:36;-2.80;85.60
12309;DHT22;6217;48.150;17.142;2023-12-04T06:00:42;-2.80;85.50
12309;DHT22;6217;48.150;17.142;2023-12-04T06:04:47;-2.80;85.40
12309;DHT22;6217;48.150;17.142;2023-12-04T06:08:53;-2.80;85.20
12309;DHT22;6217;48.150;17.142;2023-12-04T06:12:59;-2.90;85.10
12309;DHT22;6217;48.150;17.142;2023-12-04T06:17:05;-2.90;85.30
12309;DHT22;6217;48.150;17.142;2023-12-04T06:21:12;-3.00;85.50
12309;DHT22;6217;48.150;17.142;2023-12-04T06:25:18;-3.00;85.60
12309;DHT22;6217;48.150;17.142;2023-12-04T06:29:25;-3.00;85.60
12309;DHT22;6217;48.150;17.142;2023-12-04T06:33:31;-3.00;85.60
12309;DHT22;6217;48.150;17.142;2023-12-04T06:37:38;-3.00;85.70
12309;DHT22;6217;48.150;17.142;2023-12-04T06:41:49;-3.00;85.90
12309;DHT22;6217;48.150;17.142;2023-12-04T06:45:55;-3.00;85.80
12309;DHT22;6217;48.150;17.142;2023-12-04T06:50:04;-2.80;85.70
12309;DHT22;6217;48.150;17.142;2023-12-04T06:54:11;-2.80;85.40
12309;DHT22;6217;48.150;17.142;2023-12-04T06:58:19;-2.70;85.50
12309;DHT22;6217;48.150;17.142;2023-12-04T07:02:25;-2.70;85.40
12309;DHT22;6217;48.150;17.142;2023-12-04T07:06:30;-2.50;86.30
12309;DHT22;6217;48.150;17.142;2023-12-04T07:10:36;-2.40;85.60
12309;DHT22;6217;48.150;17.142;2023-12-04T07:14:42;-2.10;85.50
12309;DHT22;6217;48.150;17.142;2023-12-04T07:18:48;-1.60;85.40
12309;DHT22;6217;48.150;17.142;2023-12-04T07:22:54;-1.10;83.90
12309;DHT22;6217;48.150;17.142;2023-12-04T07:27:00;-1.20;83.50
12309;DHT22;6217;48.150;17.142;2023-12-04T07:31:06;-1.30;83.90
12309;DHT22;6217;48.150;17.142;2023-12-04T07:35:12;-1.10;84.10
12309;DHT22;6217;48.150;17.142;2023-12-04T07:39:18;-1.20;84.20
12309;DHT22;6217;48.150;17.142;2023-12-04T07:43:26;-1.20;84.80
12309;DHT22;6217;48.150;17.142;2023-12-04T07:47:32;-1.10;84.60
12309;DHT22;6217;48.150;17.142;2023-12-04T07:51:50;-1.20;84.90
12309;DHT22;6217;48.150;17.142;2023-12-04T07:55:56;-1.10;85.30
12309;DHT22;6217;48.150;17.142;2023-12-04T08:00:02;-0.90;85.40
12309;DHT22;6217;48.150;17.142;2023-12-04T08:04:10;-0.80;85.10
12309;DHT22;6217;48.150;17.142;2023-12-04T08:08:16;-0.80;84.60
12309;DHT22;6217;48.150;17.142;2023-12-04T08:12:22;-0.90;84.80
12309;DHT22;6217;48.150;17.142;2023-12-04T08:16:28;-0.80;85.20
12309;DHT22;6217;48.150;17.142;2023-12-04T08:20:35;-0.70;85.20
12309;DHT22;6217;48.150;17.142;2023-12-04T08:24:41;-0.60;84.70
12309;DHT22;6217;48.150;17.142;2023-12-04T08:28:47;-0.60;85.40
12309;DHT22;6217;48.150;17.142;2023-12-04T08:33:00;-0.50;84.70
12309;DHT22;6217;48.150;17.142;2023-12-04T08:37:29;-0.50;84.80
12309;DHT22;6217;48.150;17.142;2023-12-04T08:41:36;-0.50;84.60
12309;DHT22;6217;48.150;17.142;2023-12-04T08:45:47;-0.40;84.90
12309;DHT22;6217;48.150;17.142;2023-12-04T08:50:00;-0.10;84.90
12309;DHT22;6217;48.150;17.142;2023-12-04T08:54:06;0.20;84.40
12309;DHT22;6217;48.150;17.142;2023-12-04T08:58:13;0.10;83.80
12309;DHT22;6217;48.150;17.142;2023-12-04T09:02:19;0.00;83.60
12309;DHT22;6217;48.150;17.142;2023-12-04T09:06:24;0.00;83.70
12309;DHT22;6217;48.150;17.142;2023-12-04T09:10:31;-0.20;83.70
12309;DHT22;6217;48.150;17.142;2023-12-04T09:14:37;-0.30;83.90
12309;DHT22;6217;48.150;17.142;2023-12-04T09:18:43;0.00;84.10
12309;DHT22;6217;48.150;17.142;2023-12-04T09:22:49;0.10;83.70
12309;DHT22;6217;48.150;17.142;2023-12-04T09:26:55;0.10;83.80
12309;DHT22;6217;48.150;17.142;2023-12-04T09:31:01;0.30;84.00
12309;DHT22;6217;48.150;17.142;2023-12-04T09:35:13;0.50;83.70
12309;DHT22;6217;48.150;17.142;2023-12-04T09:39:32;0.70;83.90
12309;DHT22;6217;48.150;17.142;2023-12-04T09:43:38;0.70;83.20
12309;DHT22;6217;48.150;17.142;2023-12-04T09:47:46;0.60;83.10
12309;DHT22;6217;48.150;17.142;2023-12-04T09:52:00;0.60;83.70
12309;DHT22;6217;48.150;17.142;2023-12-04T09:56:15;0.50;83.90
12309;DHT22;6217;48.150;17.142;2023-12-04T10:00:28;0.60;84.10
12309;DHT22;6217;48.150;17.142;2023-12-04T10:04:41;0.50;84.10
12309;DHT22;6217;48.150;17.142;2023-12-04T10:08:48;0.50;84.50
12309;DHT22;6217;48.150;17.142;2023-12-04T10:12:54;0.60;84.80
12309;DHT22;6217;48.150;17.142;2023-12-04T10:17:14;0.60;84.70
12309;DHT22;6217;48.150;17.142;2023-12-04T10:21:21;0.60;84.90
12309;DHT22;6217;48.150;17.142;2023-12-04T10:25:29;0.60;85.30
12309;DHT22;6217;48.150;17.142;2023-12-04T10:29:42;0.70;85.40
12309;DHT22;6217;48.150;17.142;2023-12-04T10:33:49;0.80;85.50
12309;DHT22;6217;48.150;17.142;2023-12-04T10:37:56;1.00;85.60
12309;DHT22;6217;48.150;17.142;2023-12-04T10:42:03;1.10;85.70
12309;DHT22;6217;48.150;17.142;2023-12-04T10:46:09;1.20;85.50
12309;DHT22;6217;48.150;17.142;2023-12-04T10:50:15;1.40;85.70
12309;DHT22;6217;48.150;17.142;2023-12-04T10:54:21;1.50;85.40
12309;DHT22;6217;48.150;17.142;2023-12-04T10:58:27;1.80;85.40
12309;DHT22;6217;48.150;17.142;2023-12-04T11:02:39;1.90;85.10
12309;DHT22;6217;48.150;17.142;2023-12-04T11:06:53;2.00;85.10
12309;DHT22;6217;48.150;17.142;2023-12-04T11:11:06;2.20;85.50
12309;DHT22;6217;48.150;17.142;2023-12-04T11:15:18;2.40;84.60
12309;DHT22;6217;48.150;17.142;2023-12-04T11:19:35;2.60;84.10
12309;DHT22;6217;48.150;17.142;2023-12-04T11:23:44;2.70;83.40
12309;DHT22;6217;48.150;17.142;2023-12-04T11:27:52;2.90;83.20
12309;DHT22;6217;48.150;17.142;2023-12-04T11:31:58;3.10;82.80
12309;DHT22;6217;48.150;17.142;2023-12-04T11:36:12;3.20;82.50
12309;DHT22;6217;48.150;17.142;2023-12-04T11:40:18;3.10;81.90
12309;DHT22;6217;48.150;17.142;2023-12-04T11:44:26;3.10;81.50
12309;DHT22;6217;48.150;17.142;2023-12-04T11:48:31;3.10;81.60
12309;DHT22;6217;48.150;17.142;2023-12-04T11:52:37;3.20;81.60
12309;DHT22;6217;48.150;17.142;2023-12-04T12:01:17;3.40;81.10
12309;DHT22;6217;48.150;17.142;2023-12-04T12:05:24;3.50;80.70
12309;DHT22;6217;48.150;17.142;2023-12-04T12:09:32;3.50;80.00
12309;DHT22;6217;48.150;17.142;2023-12-04T12:13:40;3.40;79.30
12309;DHT22;6217;48.150;17.142;2023-12-04T12:17:46;3.50;79.60
12309;DHT22;6217;48.150;17.142;2023-12-04T12:21:52;3.70;79.30
12309;DHT22;6217;48.150;17.142;2023-12-04T12:25:59;3.80;79.00
12309;DHT22;6217;48.150;17.142;2023-12-04T12:30:06;3.90;78.30
12309;DHT22;6217;48.150;17.142;2023-12-04T12:34:12;4.00;77.80
12309;DHT22;6217;48.150;17.142;2023-12-04T12:38:18;4.00;77.40
12309;DHT22;6217;48.150;17.142;2023-12-04T12:42:26;4.10;77.00
12309;DHT22;6217;48.150;17.142;2023-12-04T12:46:33;4.10;75.90
12309;DHT22;6217;48.150;17.142;2023-12-04T12:50:41;4.00;74.60
12309;DHT22;6217;48.150;17.142;2023-12-04T12:54:48;3.90;74.30
12309;DHT22;6217;48.150;17.142;2023-12-04T12:58:53;3.90;74.30
12309;DHT22;6217;48.150;17.142;2023-12-04T13:02:59;4.00;74.70
12309;DHT22;6217;48.150;17.142;2023-12-04T13:07:06;4.00;74.50
12309;DHT22;6217;48.150;17.142;2023-12-04T13:11:12;3.90;74.20
12309;DHT22;6217;48.150;17.142;2023-12-04T13:15:18;3.90;74.00
12309;DHT22;6217;48.150;17.142;2023-12-04T13:19:25;3.90;73.90
12309;DHT22;6217;48.150;17.142;2023-12-04T13:23:31;3.80;73.60
12309;DHT22;6217;48.150;17.142;2023-12-04T13:27:37;3.80;73.50
12309;DHT22;6217;48.150;17.142;2023-12-04T13:31:46;3.90;73.10
12309;DHT22;6217;48.150;17.142;2023-12-04T13:35:55;3.90;73.60
12309;DHT22;6217;48.150;17.142;2023-12-04T13:40:01;3.80;73.00
12309;DHT22;6217;48.150;17.142;2023-12-04T13:44:12;3.70;72.70
12309;DHT22;6217;48.150;17.142;2023-12-04T13:48:19;3.70;73.00
12309;DHT22;6217;48.150;17.142;2023-12-04T13:52:26;3.60;72.90
12309;DHT22;6217;48.150;17.142;2023-12-04T13:56:37;3.50;72.90
12309;DHT22;6217;48.150;17.142;2023-12-04T14:01:02;3.50;72.70
12309;DHT22;6217;48.150;17.142;2023-12-04T14:05:19;3.40;72.80
12309;DHT22;6217;48.150;17.142;2023-12-04T14:09:26;3.40;73.30
12309;DHT22;6217;48.150;17.142;2023-12-04T14:13:32;3.40;73.10
12309;DHT22;6217;48.150;17.142;2023-12-04T14:17:39;3.40;73.20
12309;DHT22;6217;48.150;17.142;2023-12-04T14:21:45;3.40;73.30
12309;DHT22;6217;48.150;17.142;2023-12-04T14:25:51;3.30;73.30
12309;DHT22;6217;48.150;17.142;2023-12-04T14:29:57;3.20;73.30
12309;DHT22;6217;48.150;17.142;2023-12-04T14:34:03;3.10;73.40
12309;DHT22;6217;48.150;17.142;2023-12-04T14:38:09;3.20;73.50
12309;DHT22;6217;48.150;17.142;2023-12-04T14:42:15;3.20;73.80
12309;DHT22;6217;48.150;17.142;2023-12-04T14:46:21;3.10;73.70
12309;DHT22;6217;48.150;17.142;2023-12-04T14:50:27;3.10;73.60
12309;DHT22;6217;48.150;17.142;2023-12-04T14:54:36;3.00;73.60
12309;DHT22;6217;48.150;17.142;2023-12-04T14:59:00;3.00;73.80
12309;DHT22;6217;48.150;17.142;2023-12-04T15:03:06;2.90;74.00
12309;DHT22;6217;48.150;17.142;2023-12-04T15:07:30;2.90;74.10
12309;DHT22;6217;48.150;17.142;2023-12-04T15:11:54;2.80;74.30
12309;DHT22;6217;48.150;17.142;2023-12-04T15:16:19;2.90;74.50
12309;DHT22;6217;48.150;17.142;2023-12-04T15:20:33;2.80;74.60
12309;DHT22;6217;48.150;17.142;2023-12-04T15:24:43;2.70;74.50
12309;DHT22;6217;48.150;17.142;2023-12-04T15:28:49;2.70;74.50
12309;DHT22;6217;48.150;17.142;2023-12-04T15:32:55;2.60;74.50
12309;DHT22;6217;48.150;17.142;2023-12-04T15:37:04;2.60;74.60
12309;DHT22;6217;48.150;17.142;2023-12-04T15:41:09;2.50;74.60
12309;DHT22;6217;48.150;17.142;2023-12-04T15:45:16;2.50;74.80
12309;DHT22;6217;48.150;17.142;2023-12-04T15:49:25;2.40;74.90
12309;DHT22;6217;48.150;17.142;2023-12-04T15:53:31;2.40;75.30
12309;DHT22;6217;48.150;17.142;2023-12-04T15:57:38;2.30;76.70
12309;DHT22;6217;48.150;17.142;2023-12-04T16:01:44;2.20;77.20
12309;DHT22;6217;48.150;17.142;2023-12-04T16:05:50;2.20;77.70
12309;DHT22;6217;48.150;17.142;2023-12-04T16:09:56;2.10;78.10
12309;DHT22;6217;48.150;17.142;2023-12-04T16:14:02;2.00;78.40
12309;DHT22;6217;48.150;17.142;2023-12-04T16:18:08;1.90;78.80
12309;DHT22;6217;48.150;17.142;2023-12-04T16:22:14;1.90;79.20
12309;DHT22;6217;48.150;17.142;2023-12-04T16:26:21;1.80;79.50
12309;DHT22;6217;48.150;17.142;2023-12-04T16:30:26;1.80;80.00
12309;DHT22;6217;48.150;17.142;2023-12-04T16:34:32;1.70;80.60
12309;DHT22;6217;48.150;17.142;2023-12-04T16:38:38;1.70;80.90
12309;DHT22;6217;48.150;17.142;2023-12-04T16:42:44;1.70;81.20
12309;DHT22;6217;48.150;17.142;2023-12-04T16:46:51;1.70;81.10
12309;DHT22;6217;48.150;17.142;2023-12-04T16:51:01;1.70;81.30
12309;DHT22;6217;48.150;17.142;2023-12-04T16:55:08;1.70;81.40
12309;DHT22;6217;48.150;17.142;2023-12-04T16:59:16;1.70;81.10
12309;DHT22;6217;48.150;17.142;2023-12-04T17:03:22;1.80;81.00
12309;DHT22;6217;48.150;17.142;2023-12-04T17:07:28;1.70;81.20
12309;DHT22;6217;48.150;17.142;2023-12-04T17:11:34;1.80;81.20
12309;DHT22;6217;48.150;17.142;2023-12-04T17:15:39;1.70;81.30
12309;DHT22;6217;48.150;17.142;2023-12-04T17:19:46;1.70;81.20
12309;DHT22;6217;48.150;17.142;2023-12-04T17:23:52;1.70;81.40
12309;DHT22;6217;48.150;17.142;2023-12-04T17:27:59;1.70;81.50
12309;DHT22;6217;48.150;17.142;2023-12-04T17:32:05;1.70;81.80
12309;DHT22;6217;48.150;17.142;2023-12-04T17:36:11;1.70;81.80
12309;DHT22;6217;48.150;17.142;2023-12-04T17:40:17;1.70;81.80
12309;DHT22;6217;48.150;17.142;2023-12-04T17:44:24;1.70;81.90
12309;DHT22;6217;48.150;17.142;2023-12-04T17:48:31;1.80;81.80
12309;DHT22;6217;48.150;17.142;2023-12-04T17:52:37;1.70;81.90
12309;DHT22;6217;48.150;17.142;2023-12-04T17:56:42;1.80;81.90
12309;DHT22;6217;48.150;17.142;2023-12-04T18:00:48;1.80;82.00
12309;DHT22;6217;48.150;17.142;2023-12-04T18:04:54;1.70;82.10
12309;DHT22;6217;48.150;17.142;2023-12-04T18:09:00;1.70;82.10
12309;DHT22;6217;48.150;17.142;2023-12-04T18:13:06;1.70;82.20
12309;DHT22;6217;48.150;17.142;2023-12-04T18:17:12;1.60;82.30
12309;DHT22;6217;48.150;17.142;2023-12-04T18:21:19;1.60;82.40
12309;DHT22;6217;48.150;17.142;2023-12-04T18:25:25;1.70;82.60
12309;DHT22;6217;48.150;17.142;2023-12-04T18:29:31;1.70;82.60
12309;DHT22;6217;48.150;17.142;2023-12-04T18:33:38;1.80;82.50
12309;DHT22;6217;48.150;17.142;2023-12-04T18:37:58;1.90;82.40
12309;DHT22;6217;48.150;17.142;2023-12-04T18:42:11;1.90;82.30
12309;DHT22;6217;48.150;17.142;2023-12-04T18:46:18;2.00;82.20
12309;DHT22;6217;48.150;17.142;2023-12-04T18:50:28;2.00;82.20
12309;DHT22;6217;48.150;17.142;2023-12-04T18:54:37;2.00;82.20
12309;DHT22;6217;48.150;17.142;2023-12-04T18:58:44;2.00;82.40
12309;DHT22;6217;48.150;17.142;2023-12-04T19:02:53;2.00;83.00
12309;DHT22;6217;48.150;17.142;2023-12-04T19:07:02;2.00;82.20
12309;DHT22;6217;48.150;17.142;2023-12-04T19:11:11;2.00;82.20
12309;DHT22;6217;48.150;17.142;2023-12-04T19:15:20;2.00;82.10
12309;DHT22;6217;48.150;17.142;2023-12-04T19:19:26;1.90;82.10
12309;DHT22;6217;48.150;17.142;2023-12-04T19:23:32;1.90;82.10
12309;DHT22;6217;48.150;17.142;2023-12-04T19:27:38;1.80;82.00
12309;DHT22;6217;48.150;17.142;2023-12-04T19:31:43;1.80;82.20
12309;DHT22;6217;48.150;17.142;2023-12-04T19:35:49;1.90;82.20
12309;DHT22;6217;48.150;17.142;2023-12-04T19:39:55;1.90;82.20
12309;DHT22;6217;48.150;17.142;2023-12-04T19:44:01;1.80;82.20
12309;DHT22;6217;48.150;17.142;2023-12-04T19:48:07;1.80;82.30
12309;DHT22;6217;48.150;17.142;2023-12-04T19:52:13;1.80;82.50
12309;DHT22;6217;48.150;17.142;2023-12-04T19:56:19;1.80;82.50
12309;DHT22;6217;48.150;17.142;2023-12-04T20:00:25;1.80;82.40
12309;DHT22;6217;48.150;17.142;2023-12-04T20:04:40;1.80;82.60
12309;DHT22;6217;48.150;17.142;2023-12-04T20:08:54;1.70;82.70
12309;DHT22;6217;48.150;17.142;2023-12-04T20:13:00;1.70;82.80
12309;DHT22;6217;48.150;17.142;2023-12-04T20:17:08;1.70;82.90
12309;DHT22;6217;48.150;17.142;2023-12-04T20:21:14;1.70;83.00
12309;DHT22;6217;48.150;17.142;2023-12-04T20:25:20;1.70;82.70
12309;DHT22;6217;48.150;17.142;2023-12-04T20:29:26;1.70;82.80
12309;DHT22;6217;48.150;17.142;2023-12-04T20:33:33;1.70;82.80
12309;DHT22;6217;48.150;17.142;2023-12-04T20:37:39;1.60;82.80
12309;DHT22;6217;48.150;17.142;2023-12-04T20:41:45;1.60;82.90
12309;DHT22;6217;48.150;17.142;2023-12-04T20:45:51;1.50;83.10
12309;DHT22;6217;48.150;17.142;2023-12-04T20:49:57;1.60;83.10
12309;DHT22;6217;48.150;17.142;2023-12-04T20:54:03;1.60;83.10
12309;DHT22;6217;48.150;17.142;2023-12-04T20:58:09;1.60;83.10
12309;DHT22;6217;48.150;17.142;2023-12-04T21:02:15;1.60;82.90
12309;DHT22;6217;48.150;17.142;2023-12-04T21:06:22;1.60;83.00
12309;DHT22;6217;48.150;17.142;2023-12-04T21:10:28;1.60;83.70
12309;DHT22;6217;48.150;17.142;2023-12-04T21:14:43;1.60;83.00
12309;DHT22;6217;48.150;17.142;2023-12-04T21:18:52;1.60;82.80
12309;DHT22;6217;48.150;17.142;2023-12-04T21:23:01;1.50;82.80
12309;DHT22;6217;48.150;17.142;2023-12-04T21:27:07;1.40;83.10
12309;DHT22;6217;48.150;17.142;2023-12-04T21:31:13;1.40;83.10
12309;DHT22;6217;48.150;17.142;2023-12-04T21:35:22;1.30;83.10
12309;DHT22;6217;48.150;17.142;2023-12-04T21:39:49;1.30;83.20
12309;DHT22;6217;48.150;17.142;2023-12-04T21:43:59;1.20;83.40
12309;DHT22;6217;48.150;17.142;2023-12-04T21:48:06;1.30;83.40
12309;DHT22;6217;48.150;17.142;2023-12-04T21:52:15;1.20;83.50
12309;DHT22;6217;48.150;17.142;2023-12-04T21:56:22;1.10;83.70
12309;DHT22;6217;48.150;17.142;2023-12-04T22:00:28;1.00;84.20
12309;DHT22;6217;48.150;17.142;2023-12-04T22:04:37;0.90;84.80
12309;DHT22;6217;48.150;17.142;2023-12-04T22:08:48;0.90;85.40
12309;DHT22;6217;48.150;17.142;2023-12-04T22:12:57;0.90;85.60
12309;DHT22;6217;48.150;17.142;2023-12-04T22:17:03;0.90;85.80
12309;DHT22;6217;48.150;17.142;2023-12-04T22:21:09;0.80;86.00
12309;DHT22;6217;48.150;17.142;2023-12-04T22:25:23;0.70;86.30
12309;DHT22;6217;48.150;17.142;2023-12-04T22:29:35;0.80;86.70
12309;DHT22;6217;48.150;17.142;2023-12-04T22:33:41;0.70;87.10
12309;DHT22;6217;48.150;17.142;2023-12-04T22:37:50;0.70;87.30
12309;DHT22;6217;48.150;17.142;2023-12-04T22:42:00;0.70;87.50
12309;DHT22;6217;48.150;17.142;2023-12-04T22:46:06;0.60;87.70
12309;DHT22;6217;48.150;17.142;2023-12-04T22:50:17;0.70;87.80
12309;DHT22;6217;48.150;17.142;2023-12-04T22:54:25;0.70;88.10
12309;DHT22;6217;48.150;17.142;2023-12-04T22:58:32;0.60;88.80
12309;DHT22;6217;48.150;17.142;2023-12-04T23:02:56;0.60;88.50
12309;DHT22;6217;48.150;17.142;2023-12-04T23:07:12;0.60;88.60
12309;DHT22;6217;48.150;17.142;2023-12-04T23:11:28;0.60;88.70
12309;DHT22;6217;48.150;17.142;2023-12-04T23:15:37;0.70;88.70
12309;DHT22;6217;48.150;17.142;2023-12-04T23:19:48;0.70;88.90
12309;DHT22;6217;48.150;17.142;2023-12-04T23:24:22;0.60;88.70
12309;DHT22;6217;48.150;17.142;2023-12-04T23:28:41;0.60;88.90
12309;DHT22;6217;48.150;17.142;2023-12-04T23:32:53;0.60;89.20
12309;DHT22;6217;48.150;17.142;2023-12-04T23:36:59;0.60;89.40
12309;DHT22;6217;48.150;17.142;2023-12-04T23:41:18;0.50;89.60
12309;DHT22;6217;48.150;17.142;2023-12-04T23:45:48;0.50;90.00
12309;DHT22;6217;48.150;17.142;2023-12-04T23:49:56;0.50;90.00
12309;DHT22;6217;48.150;17.142;2023-12-04T23:54:22;0.50;90.10
12309;DHT22;6217;48.150;17.142;2023-12-04T23:59:01;0.60;90.10
